createdAt,value
2023-05-24T00:00:22.300Z,21.27
2023-05-24T00:02:49.334Z,19.55
2023-05-24T00:05:16.936Z,21.15
2023-05-24T00:07:43.848Z,25.50
2023-05-24T00:10:11.303Z,22.10
2023-05-24T00:12:38.192Z,24.77
2023-05-24T00:15:05.347Z,18.75
2023-05-24T00:17:32.326Z,25.23
2023-05-24T00:19:59.809Z,25.42
2023-05-24T00:22:26.656Z,26.63
2023-05-24T00:24:53.515Z,30.80
2023-05-24T00:27:20.413Z,35.97
2023-05-24T00:29:47.277Z,29.30
2023-05-24T00:32:14.123Z,31.20
2023-05-24T00:34:41.040Z,23.13
2023-05-24T00:37:08.250Z,25.23
2023-05-24T00:39:35.304Z,24.40
2023-05-24T00:42:02.889Z,26.63
2023-05-24T00:44:30.237Z,27.45
2023-05-24T00:46:57.316Z,21.63
2023-05-24T00:49:24.419Z,20.17
2023-05-24T00:51:53.394Z,25.90
2023-05-24T00:54:21.053Z,19.27
2023-05-24T00:56:48.430Z,22.42
2023-05-24T00:59:15.734Z,27.10
2023-05-24T01:01:42.824Z,27.85
2023-05-24T01:04:09.738Z,23.67
2023-05-24T01:06:45.093Z,22.08
2023-05-24T01:09:23.062Z,24.05
2023-05-24T01:12:08.511Z,31.60
2023-05-24T01:15:06.268Z,26.33
2023-05-24T01:17:39.019Z,25.83
2023-05-24T01:20:10.211Z,32.35
2023-05-24T01:23:18.800Z,28.02
2023-05-24T01:26:08.975Z,26.88
2023-05-24T01:28:36.445Z,24.25
2023-05-24T01:31:05.062Z,27.73
2023-05-24T01:33:32.758Z,25.25
2023-05-24T01:35:59.521Z,30.25
2023-05-24T01:38:26.356Z,28.73
2023-05-24T01:41:05.949Z,37.03
2023-05-24T01:43:43.410Z,33.28
2023-05-24T01:46:14.128Z,33.22
2023-05-24T01:49:03.249Z,30.27
2023-05-24T01:51:38.773Z,32.03
2023-05-24T01:54:06.970Z,30.70
2023-05-24T01:56:35.895Z,27.15
2023-05-24T01:59:03.717Z,25.58
2023-05-24T02:01:32.011Z,28.80
2023-05-24T02:03:59.858Z,26.98
2023-05-24T02:06:26.685Z,21.40
2023-05-24T02:08:53.681Z,22.08
2023-05-24T02:11:20.848Z,23.00
2023-05-24T02:13:47.675Z,24.58
2023-05-24T02:16:14.612Z,33.83
2023-05-24T02:18:44.582Z,24.27
2023-05-24T02:21:11.988Z,24.98
2023-05-24T02:23:38.849Z,23.33
2023-05-24T02:26:05.757Z,24.02
2023-05-24T02:28:32.602Z,28.90
2023-05-24T02:30:59.482Z,23.77
2023-05-24T02:33:26.402Z,27.13
2023-05-24T02:35:53.230Z,27.17
2023-05-24T02:38:20.195Z,25.08
2023-05-24T02:40:47.048Z,26.35
2023-05-24T02:43:13.925Z,28.65
2023-05-24T02:45:40.786Z,28.70
2023-05-24T02:48:07.686Z,27.17
2023-05-24T02:50:34.562Z,27.25
2023-05-24T02:53:01.558Z,33.45
2023-05-24T02:55:29.222Z,29.17
2023-05-24T02:57:56.463Z,25.92
2023-05-24T03:00:23.686Z,28.73
2023-05-24T03:02:53.648Z,31.88
2023-05-24T03:05:20.593Z,25.90
2023-05-24T03:07:47.385Z,23.42
2023-05-24T03:10:15.944Z,34.78
2023-05-24T03:12:42.930Z,31.55
2023-05-24T03:15:10.523Z,36.35
2023-05-24T03:17:37.350Z,29.60
2023-05-24T03:20:05.919Z,24.35
2023-05-24T03:22:32.763Z,26.98
2023-05-24T03:24:59.592Z,26.70
2023-05-24T03:27:26.433Z,24.63
2023-05-24T03:29:53.396Z,32.63
2023-05-24T03:32:20.189Z,26.40
2023-05-24T03:34:47.069Z,33.03
2023-05-24T03:37:13.869Z,26.42
2023-05-24T03:39:40.637Z,27.00
2023-05-24T03:42:07.619Z,27.50
2023-05-24T03:44:34.709Z,25.23
2023-05-24T03:47:01.568Z,23.92
2023-05-24T03:49:28.354Z,21.20
2023-05-24T03:51:55.223Z,24.95
2023-05-24T03:54:22.014Z,27.35
2023-05-24T03:56:48.789Z,40.60
2023-05-24T03:59:15.928Z,32.08
2023-05-24T04:01:42.688Z,31.50
2023-05-24T04:04:09.584Z,31.10
2023-05-24T04:06:36.870Z,28.75
2023-05-24T04:09:05.885Z,33.97
2023-05-24T04:11:32.778Z,33.05
2023-05-24T04:14:02.944Z,32.72
2023-05-24T04:16:34.042Z,27.60
2023-05-24T04:19:03.911Z,25.55
2023-05-24T04:21:32.236Z,25.20
2023-05-24T04:24:03.412Z,25.02
2023-05-24T04:26:30.871Z,24.17
2023-05-24T04:28:58.002Z,24.55
2023-05-24T04:31:26.249Z,28.27
2023-05-24T04:33:53.235Z,25.33
2023-05-24T04:36:20.042Z,27.35
2023-05-24T04:38:47.274Z,28.80
2023-05-24T04:41:14.250Z,34.55
2023-05-24T04:43:41.196Z,31.83
2023-05-24T04:46:09.412Z,28.73
2023-05-24T04:48:36.727Z,27.42
2023-05-24T04:51:03.693Z,34.53
2023-05-24T04:53:30.577Z,31.55
2023-05-24T04:55:57.409Z,32.20
2023-05-24T04:58:24.234Z,37.05
2023-05-24T05:00:51.229Z,29.17
2023-05-24T05:03:18.451Z,32.03
2023-05-24T05:05:46.548Z,31.45
2023-05-24T05:08:14.115Z,29.65
2023-05-24T05:10:41.231Z,30.80
2023-05-24T05:13:08.430Z,32.83
2023-05-24T05:15:35.214Z,33.60
2023-05-24T05:18:02.025Z,29.55
2023-05-24T05:20:28.949Z,30.48
2023-05-24T05:22:55.818Z,30.38
2023-05-24T05:25:22.752Z,29.92
2023-05-24T05:27:49.588Z,30.48
2023-05-24T05:30:16.500Z,33.38
2023-05-24T05:32:43.404Z,30.20
2023-05-24T05:35:10.408Z,31.10
2023-05-24T05:37:37.288Z,28.52
2023-05-24T05:40:04.709Z,29.17
2023-05-24T05:42:31.549Z,32.33
2023-05-24T05:44:58.452Z,30.25
2023-05-24T05:47:25.323Z,27.85
2023-05-24T05:49:52.107Z,29.98
2023-05-24T05:52:18.952Z,28.55
2023-05-24T05:54:45.905Z,28.33
2023-05-24T05:57:13.013Z,29.30
2023-05-24T05:59:42.077Z,31.30
2023-05-24T06:02:08.928Z,26.88
2023-05-24T06:04:40.995Z,25.33
2023-05-24T06:07:07.801Z,31.60
2023-05-24T06:09:34.656Z,26.95
2023-05-24T06:12:01.503Z,28.27
2023-05-24T06:14:28.372Z,25.73
2023-05-24T06:16:56.186Z,26.90
2023-05-24T06:19:25.059Z,46.72
2023-05-24T06:21:52.373Z,27.48
2023-05-24T06:24:22.796Z,24.70
2023-05-24T06:26:51.855Z,20.38
2023-05-24T06:29:22.601Z,20.75
2023-05-24T06:31:50.090Z,21.17
2023-05-24T06:34:19.101Z,18.77
2023-05-24T06:36:47.910Z,19.10
2023-05-24T06:39:16.283Z,18.63
2023-05-24T06:41:43.645Z,18.65
2023-05-24T06:44:11.126Z,17.95
2023-05-24T06:46:38.351Z,18.65
2023-05-24T06:49:05.494Z,14.95
2023-05-24T06:51:33.920Z,13.77
2023-05-24T06:54:01.029Z,13.57
2023-05-24T06:56:29.049Z,13.88
2023-05-24T06:58:56.914Z,13.40
2023-05-24T07:02:02.784Z,15.90
2023-05-24T07:04:31.286Z,15.13
2023-05-24T07:07:00.683Z,15.38
2023-05-24T07:09:27.637Z,12.65
2023-05-24T07:11:54.668Z,13.50
2023-05-24T07:14:23.195Z,16.13
2023-05-24T07:16:50.129Z,13.05
2023-05-24T07:19:17.033Z,14.70
2023-05-24T07:21:43.858Z,12.60
2023-05-24T07:24:10.829Z,13.60
2023-05-24T07:26:37.616Z,15.23
2023-05-24T07:29:04.453Z,16.45
2023-05-24T07:31:32.606Z,13.90
2023-05-24T07:33:59.458Z,13.43
2023-05-24T07:36:27.086Z,15.82
2023-05-24T07:38:54.411Z,15.57
2023-05-24T07:41:29.384Z,16.08
2023-05-24T07:44:24.417Z,15.88
2023-05-24T07:46:51.704Z,18.08
2023-05-24T07:49:18.605Z,14.35
2023-05-24T07:51:45.987Z,10.93
2023-05-24T07:54:12.849Z,13.10
2023-05-24T07:56:39.786Z,16.30
2023-05-24T07:59:06.848Z,13.35
2023-05-24T08:01:36.522Z,15.32
2023-05-24T08:04:09.019Z,14.65
2023-05-24T08:06:36.358Z,12.70
2023-05-24T08:09:04.564Z,17.42
2023-05-24T08:11:31.349Z,17.42
2023-05-24T08:13:58.206Z,17.38
2023-05-24T08:16:25.030Z,18.55
2023-05-24T08:18:54.206Z,17.20
2023-05-24T08:21:22.598Z,19.85
2023-05-24T08:23:49.457Z,20.83
2023-05-24T08:26:19.190Z,20.92
2023-05-24T08:28:46.062Z,19.40
2023-05-24T08:31:12.935Z,19.83
2023-05-24T08:33:40.930Z,18.77
2023-05-24T08:36:07.806Z,20.00
2023-05-24T08:38:34.845Z,19.85
2023-05-24T08:41:07.414Z,21.25
2023-05-24T08:43:35.032Z,20.30
2023-05-24T08:46:03.395Z,19.38
2023-05-24T08:48:30.330Z,22.27
2023-05-24T08:50:58.543Z,22.50
2023-05-24T08:53:27.010Z,18.35
2023-05-24T08:55:55.939Z,19.50
2023-05-24T08:58:23.272Z,18.08
2023-05-24T09:00:54.440Z,20.77
2023-05-24T09:03:23.298Z,18.17
2023-05-24T09:05:50.745Z,18.95
2023-05-24T09:08:18.936Z,81.95
2023-05-24T09:10:55.008Z,266.55
2023-05-24T09:13:24.944Z,248.98
2023-05-24T09:15:52.039Z,166.93
2023-05-24T09:18:18.953Z,159.88
2023-05-24T09:20:46.161Z,220.57
2023-05-24T09:23:14.657Z,53.80
2023-05-24T09:25:46.132Z,279.63
2023-05-24T09:28:18.639Z,144.65
2023-05-24T09:30:57.414Z,21.35
2023-05-24T09:33:28.350Z,23.08
2023-05-24T09:36:01.535Z,21.90
2023-05-24T09:38:29.698Z,21.33
2023-05-24T09:41:04.863Z,73.72
2023-05-24T09:43:34.554Z,51.28
2023-05-24T09:46:04.857Z,34.60
2023-05-24T09:48:32.129Z,21.67
2023-05-24T09:51:07.567Z,17.95
2023-05-24T09:53:35.836Z,19.70
2023-05-24T09:56:08.588Z,19.05
2023-05-24T09:58:36.709Z,21.08
2023-05-24T10:01:08.434Z,22.85
2023-05-24T10:03:37.446Z,18.15
2023-05-24T10:06:07.852Z,78.90
2023-05-24T10:08:36.444Z,35.40
2023-05-24T10:11:06.370Z,19.88
2023-05-24T10:13:36.564Z,19.90
2023-05-24T10:16:03.952Z,18.42
2023-05-24T10:18:31.333Z,74.68
2023-05-24T10:20:59.368Z,18.05
2023-05-24T10:23:30.545Z,19.95
2023-05-24T10:26:12.705Z,19.05
2023-05-24T10:28:44.769Z,17.23
2023-05-24T10:31:13.191Z,20.75
2023-05-24T10:33:42.840Z,29.20
2023-05-24T10:36:13.098Z,119.35
2023-05-24T10:38:40.594Z,23.48
2023-05-24T10:41:08.484Z,52.50
2023-05-24T10:43:38.803Z,20.80
2023-05-24T10:46:09.528Z,30.52
2023-05-24T10:48:38.483Z,22.02
2023-05-24T10:51:32.896Z,30.52
2023-05-24T10:54:12.581Z,21.70
2023-05-24T10:57:04.880Z,19.90
2023-05-24T10:59:40.030Z,22.42
2023-05-24T11:02:10.061Z,20.58
2023-05-24T11:04:40.108Z,21.45
2023-05-24T11:07:11.557Z,19.08
2023-05-24T11:09:46.663Z,19.88
2023-05-24T11:12:18.296Z,20.85
2023-05-24T11:14:50.466Z,19.02
2023-05-24T11:17:18.804Z,20.23
2023-05-24T11:19:50.813Z,17.80
2023-05-24T11:22:20.130Z,19.10
2023-05-24T11:24:47.468Z,26.25
2023-05-24T11:27:14.940Z,17.27
2023-05-24T11:29:44.972Z,21.38
2023-05-24T11:32:17.341Z,22.85
2023-05-24T11:34:49.753Z,20.67
2023-05-24T11:37:18.243Z,21.80
2023-05-24T11:39:51.394Z,21.33
2023-05-24T11:42:18.502Z,19.10
2023-05-24T11:44:48.555Z,16.95
2023-05-24T11:47:15.668Z,23.27
2023-05-24T11:49:42.536Z,17.77
2023-05-24T11:52:09.416Z,17.92
2023-05-24T11:54:43.269Z,20.00
2023-05-24T11:57:13.191Z,20.50
2023-05-24T12:00:11.136Z,18.00
2023-05-24T12:02:38.257Z,16.92
2023-05-24T12:05:09.918Z,17.63
2023-05-24T12:10:06.108Z,18.70
2023-05-24T12:12:42.407Z,16.05
2023-05-24T12:15:12.805Z,17.50
2023-05-24T12:17:39.658Z,16.90
2023-05-24T12:20:07.240Z,15.35
2023-05-24T12:22:34.104Z,16.55
2023-05-24T12:25:00.906Z,18.48
2023-05-24T12:27:28.558Z,17.88
2023-05-24T12:29:55.344Z,17.33
2023-05-24T12:32:22.387Z,15.80
2023-05-24T12:34:50.394Z,15.70
2023-05-24T12:37:18.581Z,19.65
2023-05-24T12:39:45.645Z,17.05
2023-05-24T12:42:16.125Z,15.55
2023-05-24T12:44:45.036Z,14.25
2023-05-24T12:47:12.199Z,11.52
2023-05-24T12:49:39.091Z,13.20
2023-05-24T12:52:06.822Z,12.10
2023-05-24T12:54:33.879Z,12.77
2023-05-24T12:57:02.532Z,11.00
2023-05-24T12:59:29.562Z,13.30
2023-05-24T13:01:56.712Z,10.65
2023-05-24T13:04:26.361Z,10.52
2023-05-24T13:06:53.533Z,11.73
2023-05-24T13:09:22.489Z,12.93
2023-05-24T13:11:49.421Z,14.70
2023-05-24T13:14:16.988Z,13.20
2023-05-24T13:16:44.618Z,10.93
2023-05-24T13:19:12.447Z,11.52
2023-05-24T13:21:39.972Z,12.52
2023-05-24T13:24:07.685Z,10.93
2023-05-24T13:26:38.081Z,10.80
2023-05-24T13:31:40.561Z,11.40
2023-05-24T13:34:09.225Z,13.38
2023-05-24T13:36:36.303Z,16.00
2023-05-24T13:39:13.886Z,15.25
2023-05-24T13:41:42.583Z,11.43
2023-05-24T13:44:30.694Z,17.05
2023-05-24T13:46:57.753Z,19.15
2023-05-24T13:49:25.818Z,19.23
2023-05-24T13:51:55.587Z,16.45
2023-05-24T13:54:24.150Z,18.48
2023-05-24T13:56:51.073Z,15.77
2023-05-24T13:59:17.903Z,14.65
2023-05-24T14:01:45.769Z,19.80
2023-05-24T14:04:12.681Z,14.65
2023-05-24T14:06:39.545Z,15.70
2023-05-24T14:09:08.337Z,16.30
2023-05-24T14:11:35.844Z,19.02
2023-05-24T14:16:32.539Z,15.77
2023-05-24T14:18:59.428Z,22.52
2023-05-24T14:21:27.074Z,14.52
2023-05-24T14:23:54.295Z,14.20
2023-05-24T14:26:25.412Z,14.60
2023-05-24T14:28:55.338Z,21.35
2023-05-24T14:31:23.495Z,14.30
2023-05-24T14:33:50.705Z,16.70
2023-05-24T14:36:17.532Z,15.63
2023-05-24T14:38:44.353Z,15.95
2023-05-24T14:41:11.263Z,13.43
2023-05-24T14:43:38.058Z,14.95
2023-05-24T14:46:05.097Z,19.80
2023-05-24T14:48:31.934Z,30.52
2023-05-24T14:50:58.801Z,64.25
2023-05-24T14:53:26.002Z,19.08
2023-05-24T14:55:54.453Z,16.55
2023-05-24T14:58:21.962Z,17.25
2023-05-24T15:00:49.045Z,30.60
2023-05-24T15:03:16.133Z,20.92
2023-05-24T15:05:43.216Z,24.63
2023-05-24T15:08:11.536Z,16.25
2023-05-24T15:10:39.437Z,18.30
2023-05-24T15:13:06.780Z,15.85
2023-05-24T15:15:33.632Z,17.05
2023-05-24T15:18:00.695Z,16.83
2023-05-24T15:20:27.875Z,15.32
2023-05-24T15:22:55.118Z,18.40
2023-05-24T15:25:22.432Z,15.77
2023-05-24T15:27:49.313Z,14.25
2023-05-24T15:30:17.493Z,15.88
2023-05-24T15:32:46.509Z,14.85
2023-05-24T15:35:13.543Z,15.20
2023-05-24T15:37:41.489Z,16.77
2023-05-24T15:40:10.648Z,16.15
2023-05-24T15:42:37.506Z,15.13
2023-05-24T15:45:04.694Z,17.38
2023-05-24T15:47:36.549Z,12.95
2023-05-24T15:50:04.149Z,14.27
2023-05-24T15:52:31.354Z,14.02
2023-05-24T15:54:58.270Z,12.05
2023-05-24T15:57:25.035Z,14.50
2023-05-24T15:59:53.289Z,12.02
2023-05-24T16:02:21.292Z,13.98
2023-05-24T16:04:48.457Z,14.38
2023-05-24T16:07:15.357Z,12.85
2023-05-24T16:09:42.216Z,10.93
2023-05-24T16:12:09.924Z,13.15
2023-05-24T16:14:36.691Z,14.02
2023-05-24T16:17:05.632Z,11.23
2023-05-24T16:19:32.480Z,11.38
2023-05-24T16:21:59.289Z,11.88
2023-05-24T16:24:26.880Z,16.20
2023-05-24T16:26:53.711Z,12.25
2023-05-24T16:29:21.362Z,12.45
2023-05-24T16:31:48.358Z,13.25
2023-05-24T16:34:16.514Z,15.55
2023-05-24T16:36:45.763Z,17.48
2023-05-24T16:39:12.593Z,18.35
2023-05-24T16:41:40.383Z,12.60
2023-05-24T16:44:07.714Z,16.23
2023-05-24T16:46:34.759Z,15.23
2023-05-24T16:49:03.362Z,11.27
2023-05-24T16:51:30.378Z,12.25
2023-05-24T16:53:57.222Z,17.27
2023-05-24T16:56:24.021Z,12.02
2023-05-24T16:58:51.246Z,11.45
2023-05-24T17:01:18.171Z,13.10
2023-05-24T17:03:45.157Z,11.45
2023-05-24T17:06:12.077Z,13.65
2023-05-24T17:08:39.174Z,13.52
2023-05-24T17:11:06.772Z,10.82
2023-05-24T17:13:34.208Z,7.78
2023-05-24T17:16:03.630Z,8.18
2023-05-24T17:18:30.556Z,10.07
2023-05-24T17:20:59.201Z,6.65
2023-05-24T17:23:27.048Z,6.45
2023-05-24T17:25:55.499Z,7.55
2023-05-24T17:28:27.593Z,5.80
2023-05-24T17:30:59.295Z,6.15
2023-05-24T17:33:27.988Z,6.50
2023-05-24T17:35:56.626Z,6.93
2023-05-24T17:38:24.970Z,7.28
2023-05-24T17:40:59.636Z,4.45
2023-05-24T17:43:32.600Z,8.20
2023-05-24T17:46:05.901Z,4.10
2023-05-24T17:48:34.323Z,10.73
2023-05-24T17:51:02.078Z,8.27
2023-05-24T17:53:32.159Z,9.38
2023-05-24T17:55:59.494Z,7.13
2023-05-24T17:58:26.983Z,7.10
2023-05-24T18:00:53.824Z,9.13
2023-05-24T18:03:20.777Z,9.02
2023-05-24T18:05:47.570Z,9.45
2023-05-24T18:08:14.402Z,8.70
2023-05-24T18:10:41.236Z,12.27
2023-05-24T18:13:09.367Z,8.13
2023-05-24T18:15:36.608Z,8.05
2023-05-24T18:18:04.779Z,5.85
2023-05-24T18:20:31.762Z,6.53
2023-05-24T18:22:58.598Z,10.98
2023-05-24T18:25:25.853Z,7.13
2023-05-24T18:27:52.695Z,12.15
2023-05-24T18:30:22.024Z,5.95
2023-05-24T18:33:04.533Z,5.97
2023-05-24T18:35:34.190Z,15.38
2023-05-24T18:38:01.117Z,8.20
2023-05-24T18:40:27.937Z,5.63
2023-05-24T18:42:54.725Z,10.07
2023-05-24T18:45:21.791Z,6.82
2023-05-24T18:47:48.635Z,8.80
2023-05-24T18:50:15.737Z,7.28
2023-05-24T18:52:42.533Z,9.50
2023-05-24T18:55:12.091Z,5.70
2023-05-24T18:57:39.375Z,8.25
2023-05-24T19:00:07.353Z,8.30
2023-05-24T19:02:43.900Z,10.73
2023-05-24T19:05:11.020Z,13.25
2023-05-24T19:07:37.831Z,5.40
2023-05-24T19:10:05.059Z,7.55
2023-05-24T19:12:31.942Z,6.65
2023-05-24T19:14:59.099Z,7.75
2023-05-24T19:17:26.116Z,8.05
2023-05-24T19:19:53.031Z,7.47
2023-05-24T19:22:20.374Z,5.43
2023-05-24T19:24:47.292Z,8.30
2023-05-24T19:27:14.622Z,7.72
2023-05-24T19:29:41.422Z,7.95
2023-05-24T19:32:08.507Z,9.07
2023-05-24T19:34:37.320Z,7.35
2023-05-24T19:37:04.479Z,11.20
2023-05-24T19:39:31.318Z,9.82
2023-05-24T19:41:58.110Z,8.35
2023-05-24T19:44:24.896Z,9.98
2023-05-24T19:46:51.693Z,8.80
2023-05-24T19:49:20.600Z,11.63
2023-05-24T19:51:47.388Z,11.50
2023-05-24T19:54:19.325Z,7.63
2023-05-24T19:56:49.843Z,11.20
2023-05-24T19:59:20.084Z,14.88
2023-05-24T20:01:46.943Z,12.45
2023-05-24T20:04:13.839Z,6.20
2023-05-24T20:06:40.878Z,7.18
2023-05-24T20:09:08.559Z,12.23
2023-05-24T20:11:35.406Z,8.35
2023-05-24T20:14:02.538Z,9.68
2023-05-24T20:16:31.173Z,9.82
2023-05-24T20:18:58.062Z,9.70
2023-05-24T20:21:24.968Z,9.35
2023-05-24T20:23:57.708Z,10.68
2023-05-24T20:26:25.029Z,6.40
2023-05-24T20:28:52.129Z,9.10
2023-05-24T20:31:19.097Z,13.45
2023-05-24T20:33:45.928Z,7.10
2023-05-24T20:36:14.939Z,8.98
2023-05-24T20:38:41.865Z,17.42
2023-05-24T20:41:08.729Z,8.77
2023-05-24T20:43:35.576Z,7.57
2023-05-24T20:46:02.468Z,10.35
2023-05-24T20:48:29.477Z,8.25
2023-05-24T20:50:56.402Z,8.20
2023-05-24T20:53:23.277Z,8.55
2023-05-24T20:55:50.160Z,11.55
2023-05-24T20:58:18.192Z,11.30
2023-05-24T21:00:45.687Z,9.15
2023-05-24T21:03:12.801Z,7.63
2023-05-24T21:05:40.334Z,13.75
2023-05-24T21:08:07.280Z,13.38
2023-05-24T21:10:34.101Z,11.68
2023-05-24T21:13:00.949Z,9.32
2023-05-24T21:15:27.855Z,18.50
2023-05-24T21:17:54.816Z,12.23
2023-05-24T21:20:21.895Z,12.57
2023-05-24T21:22:48.897Z,13.02
2023-05-24T21:25:15.869Z,9.50
2023-05-24T21:27:42.644Z,12.60
2023-05-24T21:30:09.846Z,9.90
2023-05-24T21:32:36.676Z,9.35
2023-05-24T21:35:03.667Z,9.02
2023-05-24T21:37:30.476Z,10.57
2023-05-24T21:39:57.389Z,13.65
2023-05-24T21:42:25.301Z,8.68
2023-05-24T21:44:52.082Z,7.88
2023-05-24T21:47:18.856Z,6.88
2023-05-24T21:49:46.768Z,9.07
2023-05-24T21:52:13.600Z,9.95
2023-05-24T21:54:40.385Z,10.35
2023-05-24T21:57:07.363Z,8.82
2023-05-24T21:59:34.280Z,11.32
2023-05-24T22:02:01.279Z,9.48
2023-05-24T22:04:28.208Z,10.77
2023-05-24T22:06:55.012Z,9.57
2023-05-24T22:09:22.244Z,12.82
2023-05-24T22:11:49.119Z,11.15
2023-05-24T22:14:16.233Z,6.70
2023-05-24T22:16:43.241Z,8.15
2023-05-24T22:19:12.175Z,10.77
2023-05-24T22:21:41.743Z,7.65
2023-05-24T22:24:09.729Z,7.25
2023-05-24T22:26:36.933Z,13.50
2023-05-24T22:29:03.994Z,10.85
2023-05-24T22:31:33.656Z,9.18
2023-05-24T22:34:03.489Z,9.77
2023-05-24T22:36:33.255Z,13.05
2023-05-24T22:39:01.202Z,10.13
2023-05-24T22:41:28.348Z,12.88
2023-05-24T22:43:56.954Z,12.75
2023-05-24T22:46:24.785Z,12.73
2023-05-24T22:48:52.690Z,14.02
2023-05-24T22:51:20.360Z,11.60
2023-05-24T22:53:48.354Z,11.25
2023-05-24T22:56:15.193Z,12.18
2023-05-24T22:58:41.995Z,13.10
2023-05-24T23:01:08.882Z,11.98
2023-05-24T23:03:35.942Z,13.82
2023-05-24T23:06:04.560Z,8.48
2023-05-24T23:08:32.321Z,12.95
2023-05-24T23:11:00.233Z,10.70
2023-05-24T23:13:33.306Z,10.10
2023-05-24T23:16:00.694Z,9.57
2023-05-24T23:18:27.964Z,10.00
2023-05-24T23:20:56.127Z,13.40
2023-05-24T23:23:24.858Z,10.00
2023-05-24T23:25:51.862Z,14.10
2023-05-24T23:28:19.169Z,11.75
2023-05-24T23:30:46.234Z,14.82
2023-05-24T23:33:13.034Z,12.32
2023-05-24T23:35:40.004Z,12.50
2023-05-24T23:38:06.890Z,9.35
2023-05-24T23:40:34.399Z,17.17
2023-05-24T23:43:01.233Z,12.18
2023-05-24T23:45:28.212Z,15.80
2023-05-24T23:47:55.131Z,16.75
2023-05-24T23:50:22.617Z,19.50
2023-05-24T23:52:49.823Z,22.65
2023-05-24T23:55:17.089Z,19.35
2023-05-24T23:57:44.045Z,14.07
